sensor_id;sensor_type;location;lat;lon;timestamp;P1;durP1;ratioP1;P2;durP2;ratioP2
11996;SDS011;6058;48.704;9.474;2023-06-22T00:01:21;8.10;;;5.50;;
11996;SDS011;6058;48.704;9.474;2023-06-22T00:03:49;5.50;;;4.95;;
11996;SDS011;6058;48.704;9.474;2023-06-22T00:06:16;7.13;;;6.07;;
11996;SDS011;6058;48.704;9.474;2023-06-22T00:08:43;8.07;;;6.18;;
11996;SDS011;6058;48.704;9.474;2023-06-22T00:11:11;6.30;;;5.60;;
11996;SDS011;6058;48.704;9.474;2023-06-22T00:13:38;7.05;;;6.22;;
11996;SDS011;6058;48.704;9.474;2023-06-22T00:16:05;7.28;;;5.93;;
11996;SDS011;6058;48.704;9.474;2023-06-22T00:18:32;8.05;;;6.03;;
11996;SDS011;6058;48.704;9.474;2023-06-22T00:21:01;6.95;;;5.65;;
11996;SDS011;6058;48.704;9.474;2023-06-22T00:23:28;6.22;;;5.63;;
11996;SDS011;6058;48.704;9.474;2023-06-22T00:25:59;7.68;;;5.57;;
11996;SDS011;6058;48.704;9.474;2023-06-22T00:28:26;8.40;;;5.28;;
11996;SDS011;6058;48.704;9.474;2023-06-22T00:30:54;5.93;;;4.97;;
11996;SDS011;6058;48.704;9.474;2023-06-22T00:33:21;7.47;;;5.40;;
11996;SDS011;6058;48.704;9.474;2023-06-22T00:35:48;9.32;;;5.70;;
11996;SDS011;6058;48.704;9.474;2023-06-22T00:38:19;6.13;;;5.03;;
11996;SDS011;6058;48.704;9.474;2023-06-22T00:40:46;6.22;;;4.82;;
11996;SDS011;6058;48.704;9.474;2023-06-22T00:43:13;7.90;;;5.00;;
11996;SDS011;6058;48.704;9.474;2023-06-22T00:45:40;5.72;;;5.15;;
11996;SDS011;6058;48.704;9.474;2023-06-22T00:48:07;8.32;;;4.85;;
11996;SDS011;6058;48.704;9.474;2023-06-22T00:50:35;9.10;;;5.05;;
11996;SDS011;6058;48.704;9.474;2023-06-22T00:53:03;9.40;;;6.05;;
11996;SDS011;6058;48.704;9.474;2023-06-22T00:55:34;6.47;;;5.57;;
11996;SDS011;6058;48.704;9.474;2023-06-22T00:58:03;6.97;;;5.68;;
11996;SDS011;6058;48.704;9.474;2023-06-22T01:00:33;5.43;;;4.85;;
11996;SDS011;6058;48.704;9.474;2023-06-22T01:03:01;6.57;;;5.97;;
11996;SDS011;6058;48.704;9.474;2023-06-22T01:05:28;7.17;;;6.10;;
11996;SDS011;6058;48.704;9.474;2023-06-22T01:08:00;9.60;;;6.55;;
11996;SDS011;6058;48.704;9.474;2023-06-22T01:10:32;6.35;;;5.30;;
11996;SDS011;6058;48.704;9.474;2023-06-22T01:13:03;6.70;;;5.53;;
11996;SDS011;6058;48.704;9.474;2023-06-22T01:15:33;11.00;;;6.15;;
11996;SDS011;6058;48.704;9.474;2023-06-22T01:18:03;8.18;;;5.68;;
11996;SDS011;6058;48.704;9.474;2023-06-22T01:20:30;6.18;;;5.43;;
11996;SDS011;6058;48.704;9.474;2023-06-22T01:23:02;6.88;;;5.20;;
11996;SDS011;6058;48.704;9.474;2023-06-22T01:25:33;9.48;;;5.45;;
11996;SDS011;6058;48.704;9.474;2023-06-22T01:28:05;7.05;;;5.95;;
11996;SDS011;6058;48.704;9.474;2023-06-22T01:30:41;6.63;;;5.95;;
11996;SDS011;6058;48.704;9.474;2023-06-22T01:33:09;6.45;;;5.72;;
11996;SDS011;6058;48.704;9.474;2023-06-22T01:35:37;8.40;;;5.78;;
11996;SDS011;6058;48.704;9.474;2023-06-22T01:38:04;8.38;;;5.78;;
11996;SDS011;6058;48.704;9.474;2023-06-22T01:40:32;6.32;;;5.15;;
11996;SDS011;6058;48.704;9.474;2023-06-22T01:43:00;6.45;;;5.28;;
11996;SDS011;6058;48.704;9.474;2023-06-22T01:45:27;7.57;;;5.50;;
11996;SDS011;6058;48.704;9.474;2023-06-22T01:47:56;6.97;;;5.50;;
11996;SDS011;6058;48.704;9.474;2023-06-22T01:50:23;9.73;;;5.38;;
11996;SDS011;6058;48.704;9.474;2023-06-22T01:52:50;7.38;;;4.78;;
11996;SDS011;6058;48.704;9.474;2023-06-22T01:55:17;8.15;;;5.68;;
11996;SDS011;6058;48.704;9.474;2023-06-22T01:57:44;8.35;;;5.35;;
11996;SDS011;6058;48.704;9.474;2023-06-22T02:00:12;9.52;;;5.90;;
11996;SDS011;6058;48.704;9.474;2023-06-22T02:02:43;7.93;;;5.05;;
11996;SDS011;6058;48.704;9.474;2023-06-22T02:05:11;7.67;;;5.47;;
11996;SDS011;6058;48.704;9.474;2023-06-22T02:07:43;6.30;;;5.70;;
11996;SDS011;6058;48.704;9.474;2023-06-22T02:10:11;7.00;;;5.45;;
11996;SDS011;6058;48.704;9.474;2023-06-22T02:15:09;9.07;;;5.13;;
11996;SDS011;6058;48.704;9.474;2023-06-22T02:17:37;11.23;;;5.70;;
11996;SDS011;6058;48.704;9.474;2023-06-22T02:20:05;8.55;;;5.30;;
11996;SDS011;6058;48.704;9.474;2023-06-22T02:22:35;5.65;;;5.03;;
11996;SDS011;6058;48.704;9.474;2023-06-22T02:25:02;7.20;;;5.47;;
11996;SDS011;6058;48.704;9.474;2023-06-22T02:27:29;8.00;;;5.28;;
11996;SDS011;6058;48.704;9.474;2023-06-22T02:29:56;9.30;;;4.93;;
11996;SDS011;6058;48.704;9.474;2023-06-22T02:32:23;6.95;;;5.07;;
11996;SDS011;6058;48.704;9.474;2023-06-22T02:34:52;6.45;;;5.00;;
11996;SDS011;6058;48.704;9.474;2023-06-22T02:37:19;9.43;;;5.15;;
11996;SDS011;6058;48.704;9.474;2023-06-22T02:39:51;8.95;;;5.20;;
11996;SDS011;6058;48.704;9.474;2023-06-22T02:42:18;8.97;;;4.90;;
11996;SDS011;6058;48.704;9.474;2023-06-22T02:44:46;5.35;;;4.43;;
11996;SDS011;6058;48.704;9.474;2023-06-22T02:47:13;5.83;;;4.93;;
11996;SDS011;6058;48.704;9.474;2023-06-22T02:49:41;6.37;;;4.83;;
11996;SDS011;6058;48.704;9.474;2023-06-22T02:52:10;11.63;;;5.55;;
11996;SDS011;6058;48.704;9.474;2023-06-22T02:54:37;12.60;;;5.32;;
11996;SDS011;6058;48.704;9.474;2023-06-22T02:57:06;8.43;;;5.22;;
11996;SDS011;6058;48.704;9.474;2023-06-22T02:59:38;6.00;;;4.93;;
11996;SDS011;6058;48.704;9.474;2023-06-22T03:02:06;6.30;;;5.07;;
11996;SDS011;6058;48.704;9.474;2023-06-22T03:04:33;9.23;;;5.67;;
11996;SDS011;6058;48.704;9.474;2023-06-22T03:07:00;6.43;;;5.30;;
11996;SDS011;6058;48.704;9.474;2023-06-22T03:09:28;9.93;;;5.97;;
11996;SDS011;6058;48.704;9.474;2023-06-22T03:11:55;7.72;;;5.30;;
11996;SDS011;6058;48.704;9.474;2023-06-22T03:14:23;7.47;;;4.90;;
11996;SDS011;6058;48.704;9.474;2023-06-22T03:16:51;5.77;;;4.20;;
11996;SDS011;6058;48.704;9.474;2023-06-22T03:19:18;8.07;;;4.83;;
11996;SDS011;6058;48.704;9.474;2023-06-22T03:21:46;8.95;;;4.88;;
11996;SDS011;6058;48.704;9.474;2023-06-22T03:24:13;6.87;;;5.60;;
11996;SDS011;6058;48.704;9.474;2023-06-22T03:26:40;6.43;;;5.53;;
11996;SDS011;6058;48.704;9.474;2023-06-22T03:29:07;6.33;;;5.13;;
11996;SDS011;6058;48.704;9.474;2023-06-22T03:31:36;6.53;;;4.90;;
11996;SDS011;6058;48.704;9.474;2023-06-22T03:34:03;10.17;;;6.83;;
11996;SDS011;6058;48.704;9.474;2023-06-22T03:36:30;8.40;;;5.33;;
11996;SDS011;6058;48.704;9.474;2023-06-22T03:38:57;9.77;;;5.10;;
11996;SDS011;6058;48.704;9.474;2023-06-22T03:41:24;6.47;;;5.40;;
11996;SDS011;6058;48.704;9.474;2023-06-22T03:43:51;7.10;;;4.90;;
11996;SDS011;6058;48.704;9.474;2023-06-22T03:46:18;7.03;;;5.07;;
11996;SDS011;6058;48.704;9.474;2023-06-22T03:48:47;5.87;;;4.53;;
11996;SDS011;6058;48.704;9.474;2023-06-22T03:51:14;7.00;;;4.70;;
11996;SDS011;6058;48.704;9.474;2023-06-22T03:53:42;6.70;;;4.90;;
11996;SDS011;6058;48.704;9.474;2023-06-22T03:56:09;8.43;;;4.90;;
11996;SDS011;6058;48.704;9.474;2023-06-22T03:58:37;6.23;;;5.57;;
11996;SDS011;6058;48.704;9.474;2023-06-22T04:01:08;6.43;;;5.47;;
11996;SDS011;6058;48.704;9.474;2023-06-22T04:03:38;8.03;;;5.50;;
11996;SDS011;6058;48.704;9.474;2023-06-22T04:06:07;5.37;;;4.57;;
11996;SDS011;6058;48.704;9.474;2023-06-22T04:08:35;6.83;;;5.23;;
11996;SDS011;6058;48.704;9.474;2023-06-22T04:11:04;8.27;;;5.70;;
11996;SDS011;6058;48.704;9.474;2023-06-22T04:13:31;8.30;;;5.30;;
11996;SDS011;6058;48.704;9.474;2023-06-22T04:15:58;9.02;;;5.40;;
11996;SDS011;6058;48.704;9.474;2023-06-22T04:18:26;6.83;;;5.20;;
11996;SDS011;6058;48.704;9.474;2023-06-22T04:20:53;5.50;;;5.00;;
11996;SDS011;6058;48.704;9.474;2023-06-22T04:23:21;9.60;;;5.07;;
11996;SDS011;6058;48.704;9.474;2023-06-22T04:25:49;7.10;;;5.20;;
11996;SDS011;6058;48.704;9.474;2023-06-22T04:28:16;7.93;;;5.67;;
11996;SDS011;6058;48.704;9.474;2023-06-22T04:30:43;6.37;;;5.27;;
11996;SDS011;6058;48.704;9.474;2023-06-22T04:33:12;8.10;;;5.87;;
11996;SDS011;6058;48.704;9.474;2023-06-22T04:35:40;6.57;;;5.43;;
11996;SDS011;6058;48.704;9.474;2023-06-22T04:38:07;7.50;;;5.60;;
11996;SDS011;6058;48.704;9.474;2023-06-22T04:40:35;9.63;;;5.70;;
11996;SDS011;6058;48.704;9.474;2023-06-22T04:43:03;8.38;;;5.35;;
11996;SDS011;6058;48.704;9.474;2023-06-22T04:45:31;8.38;;;5.72;;
11996;SDS011;6058;48.704;9.474;2023-06-22T04:47:58;8.17;;;5.57;;
11996;SDS011;6058;48.704;9.474;2023-06-22T04:50:25;10.10;;;6.22;;
11996;SDS011;6058;48.704;9.474;2023-06-22T04:52:52;8.50;;;5.90;;
11996;SDS011;6058;48.704;9.474;2023-06-22T04:55:19;9.37;;;5.83;;
11996;SDS011;6058;48.704;9.474;2023-06-22T04:57:48;5.93;;;5.07;;
11996;SDS011;6058;48.704;9.474;2023-06-22T05:00:15;8.65;;;6.50;;
11996;SDS011;6058;48.704;9.474;2023-06-22T05:02:44;7.10;;;5.60;;
11996;SDS011;6058;48.704;9.474;2023-06-22T05:05:11;9.15;;;5.80;;
11996;SDS011;6058;48.704;9.474;2023-06-22T05:07:39;5.33;;;4.37;;
11996;SDS011;6058;48.704;9.474;2023-06-22T05:10:08;8.93;;;5.83;;
11996;SDS011;6058;48.704;9.474;2023-06-22T05:12:36;6.00;;;4.88;;
11996;SDS011;6058;48.704;9.474;2023-06-22T05:15:05;8.15;;;5.70;;
11996;SDS011;6058;48.704;9.474;2023-06-22T05:17:32;8.38;;;5.75;;
11996;SDS011;6058;48.704;9.474;2023-06-22T05:19:59;6.13;;;5.38;;
11996;SDS011;6058;48.704;9.474;2023-06-22T05:22:26;6.97;;;5.20;;
11996;SDS011;6058;48.704;9.474;2023-06-22T05:24:54;7.53;;;5.93;;
11996;SDS011;6058;48.704;9.474;2023-06-22T05:27:21;6.90;;;5.43;;
11996;SDS011;6058;48.704;9.474;2023-06-22T05:29:48;6.70;;;5.32;;
11996;SDS011;6058;48.704;9.474;2023-06-22T05:32:16;8.90;;;5.65;;
11996;SDS011;6058;48.704;9.474;2023-06-22T05:34:44;9.32;;;5.97;;
11996;SDS011;6058;48.704;9.474;2023-06-22T05:37:12;8.40;;;5.53;;
11996;SDS011;6058;48.704;9.474;2023-06-22T05:39:39;8.25;;;5.20;;
11996;SDS011;6058;48.704;9.474;2023-06-22T05:42:06;6.45;;;5.07;;
11996;SDS011;6058;48.704;9.474;2023-06-22T05:44:34;7.63;;;5.40;;
11996;SDS011;6058;48.704;9.474;2023-06-22T05:47:02;7.25;;;4.68;;
11996;SDS011;6058;48.704;9.474;2023-06-22T05:49:31;5.35;;;4.15;;
11996;SDS011;6058;48.704;9.474;2023-06-22T05:51:58;7.28;;;4.95;;
11996;SDS011;6058;48.704;9.474;2023-06-22T05:54:26;5.75;;;4.80;;
11996;SDS011;6058;48.704;9.474;2023-06-22T05:56:54;6.45;;;4.35;;
11996;SDS011;6058;48.704;9.474;2023-06-22T05:59:21;6.90;;;4.38;;
11996;SDS011;6058;48.704;9.474;2023-06-22T06:01:48;9.00;;;4.70;;
11996;SDS011;6058;48.704;9.474;2023-06-22T06:04:16;6.88;;;4.20;;
11996;SDS011;6058;48.704;9.474;2023-06-22T06:06:45;5.70;;;4.13;;
11996;SDS011;6058;48.704;9.474;2023-06-22T06:09:14;6.07;;;4.10;;
11996;SDS011;6058;48.704;9.474;2023-06-22T06:11:41;7.60;;;4.57;;
11996;SDS011;6058;48.704;9.474;2023-06-22T06:14:08;8.07;;;4.22;;
11996;SDS011;6058;48.704;9.474;2023-06-22T06:16:35;4.60;;;4.10;;
11996;SDS011;6058;48.704;9.474;2023-06-22T06:19:16;5.32;;;3.50;;
11996;SDS011;6058;48.704;9.474;2023-06-22T06:21:44;5.45;;;4.00;;
11996;SDS011;6058;48.704;9.474;2023-06-22T06:24:12;3.83;;;3.53;;
11996;SDS011;6058;48.704;9.474;2023-06-22T06:26:39;6.57;;;3.65;;
11996;SDS011;6058;48.704;9.474;2023-06-22T06:29:06;7.28;;;3.85;;
11996;SDS011;6058;48.704;9.474;2023-06-22T06:31:33;3.83;;;3.50;;
11996;SDS011;6058;48.704;9.474;2023-06-22T06:34:01;7.18;;;3.83;;
11996;SDS011;6058;48.704;9.474;2023-06-22T06:36:28;6.90;;;4.15;;
11996;SDS011;6058;48.704;9.474;2023-06-22T06:38:56;5.57;;;3.70;;
11996;SDS011;6058;48.704;9.474;2023-06-22T06:41:24;5.60;;;3.60;;
11996;SDS011;6058;48.704;9.474;2023-06-22T06:43:51;6.05;;;3.55;;
11996;SDS011;6058;48.704;9.474;2023-06-22T06:46:18;5.22;;;3.85;;
11996;SDS011;6058;48.704;9.474;2023-06-22T06:48:45;7.80;;;3.70;;
11996;SDS011;6058;48.704;9.474;2023-06-22T06:51:12;5.90;;;3.40;;
11996;SDS011;6058;48.704;9.474;2023-06-22T06:53:39;4.22;;;3.40;;
11996;SDS011;6058;48.704;9.474;2023-06-22T06:56:08;5.72;;;3.47;;
11996;SDS011;6058;48.704;9.474;2023-06-22T06:58:35;9.32;;;4.10;;
11996;SDS011;6058;48.704;9.474;2023-06-22T07:01:03;7.20;;;3.90;;
11996;SDS011;6058;48.704;9.474;2023-06-22T07:03:30;10.05;;;3.00;;
11996;SDS011;6058;48.704;9.474;2023-06-22T07:05:58;5.65;;;3.10;;
11996;SDS011;6058;48.704;9.474;2023-06-22T07:08:25;5.50;;;3.10;;
11996;SDS011;6058;48.704;9.474;2023-06-22T07:10:52;4.03;;;3.00;;
11996;SDS011;6058;48.704;9.474;2023-06-22T07:13:21;9.25;;;3.30;;
11996;SDS011;6058;48.704;9.474;2023-06-22T07:15:48;4.50;;;3.00;;
11996;SDS011;6058;48.704;9.474;2023-06-22T07:18:15;6.15;;;3.25;;
11996;SDS011;6058;48.704;9.474;2023-06-22T07:20:42;5.10;;;3.50;;
11996;SDS011;6058;48.704;9.474;2023-06-22T07:23:09;6.32;;;3.40;;
11996;SDS011;6058;48.704;9.474;2023-06-22T07:25:37;4.10;;;3.30;;
11996;SDS011;6058;48.704;9.474;2023-06-22T07:28:04;4.35;;;3.38;;
11996;SDS011;6058;48.704;9.474;2023-06-22T07:30:33;8.63;;;3.53;;
11996;SDS011;6058;48.704;9.474;2023-06-22T07:33:01;5.22;;;3.33;;
11996;SDS011;6058;48.704;9.474;2023-06-22T07:35:32;4.88;;;2.90;;
11996;SDS011;6058;48.704;9.474;2023-06-22T07:37:59;8.50;;;3.40;;
11996;SDS011;6058;48.704;9.474;2023-06-22T07:40:26;8.63;;;3.63;;
11996;SDS011;6058;48.704;9.474;2023-06-22T07:42:54;8.57;;;3.72;;
11996;SDS011;6058;48.704;9.474;2023-06-22T07:45:21;4.40;;;3.55;;
11996;SDS011;6058;48.704;9.474;2023-06-22T07:47:49;7.30;;;3.63;;
11996;SDS011;6058;48.704;9.474;2023-06-22T07:50:17;8.38;;;3.55;;
11996;SDS011;6058;48.704;9.474;2023-06-22T07:52:44;7.60;;;3.65;;
11996;SDS011;6058;48.704;9.474;2023-06-22T07:55:12;5.68;;;2.83;;
11996;SDS011;6058;48.704;9.474;2023-06-22T07:57:39;9.75;;;3.50;;
11996;SDS011;6058;48.704;9.474;2023-06-22T08:00:07;5.18;;;2.90;;
11996;SDS011;6058;48.704;9.474;2023-06-22T15:18:09;10.80;;;5.03;;
11996;SDS011;6058;48.704;9.474;2023-06-22T15:20:36;9.40;;;4.32;;
11996;SDS011;6058;48.704;9.474;2023-06-22T15:23:03;8.02;;;4.13;;
11996;SDS011;6058;48.704;9.474;2023-06-22T15:25:30;10.50;;;4.13;;
11996;SDS011;6058;48.704;9.474;2023-06-22T15:27:57;10.13;;;4.82;;
11996;SDS011;6058;48.704;9.474;2023-06-22T15:30:24;8.77;;;4.32;;
11996;SDS011;6058;48.704;9.474;2023-06-22T15:32:52;8.95;;;4.45;;
11996;SDS011;6058;48.704;9.474;2023-06-22T15:35:22;13.73;;;4.40;;
11996;SDS011;6058;48.704;9.474;2023-06-22T15:37:49;6.93;;;4.10;;
11996;SDS011;6058;48.704;9.474;2023-06-22T15:40:17;8.93;;;4.45;;
11996;SDS011;6058;48.704;9.474;2023-06-22T15:42:44;9.98;;;4.25;;
11996;SDS011;6058;48.704;9.474;2023-06-22T15:45:12;9.32;;;4.38;;
11996;SDS011;6058;48.704;9.474;2023-06-22T15:47:40;7.97;;;4.25;;
11996;SDS011;6058;48.704;9.474;2023-06-22T15:50:07;9.90;;;4.13;;
11996;SDS011;6058;48.704;9.474;2023-06-22T15:52:36;9.57;;;3.42;;
11996;SDS011;6058;48.704;9.474;2023-06-22T15:55:03;10.45;;;3.70;;
11996;SDS011;6058;48.704;9.474;2023-06-22T15:57:32;9.23;;;3.42;;
11996;SDS011;6058;48.704;9.474;2023-06-22T16:00:03;10.90;;;3.15;;
11996;SDS011;6058;48.704;9.474;2023-06-22T16:02:30;7.65;;;3.08;;
11996;SDS011;6058;48.704;9.474;2023-06-22T16:04:58;5.43;;;2.78;;
11996;SDS011;6058;48.704;9.474;2023-06-22T16:07:26;7.55;;;3.10;;
11996;SDS011;6058;48.704;9.474;2023-06-22T16:09:54;11.43;;;3.63;;
11996;SDS011;6058;48.704;9.474;2023-06-22T16:12:21;8.32;;;2.97;;
11996;SDS011;6058;48.704;9.474;2023-06-22T16:14:51;8.20;;;3.30;;
11996;SDS011;6058;48.704;9.474;2023-06-22T16:17:18;5.68;;;3.00;;
11996;SDS011;6058;48.704;9.474;2023-06-22T16:19:45;10.15;;;3.60;;
11996;SDS011;6058;48.704;9.474;2023-06-22T16:22:12;8.40;;;3.28;;
11996;SDS011;6058;48.704;9.474;2023-06-22T16:24:40;7.32;;;3.08;;
11996;SDS011;6058;48.704;9.474;2023-06-22T16:27:08;5.72;;;2.42;;
11996;SDS011;6058;48.704;9.474;2023-06-22T16:29:35;18.25;;;2.97;;
11996;SDS011;6058;48.704;9.474;2023-06-22T16:32:04;5.90;;;2.88;;
11996;SDS011;6058;48.704;9.474;2023-06-22T16:34:31;11.13;;;2.70;;
11996;SDS011;6058;48.704;9.474;2023-06-22T16:36:58;9.00;;;3.05;;
11996;SDS011;6058;48.704;9.474;2023-06-22T16:39:25;9.95;;;3.15;;
11996;SDS011;6058;48.704;9.474;2023-06-22T16:41:52;5.10;;;2.95;;
11996;SDS011;6058;48.704;9.474;2023-06-22T16:44:21;6.63;;;2.95;;
11996;SDS011;6058;48.704;9.474;2023-06-22T16:46:48;7.82;;;2.83;;
11996;SDS011;6058;48.704;9.474;2023-06-22T16:49:15;7.28;;;2.90;;
11996;SDS011;6058;48.704;9.474;2023-06-22T16:51:42;9.60;;;2.50;;
11996;SDS011;6058;48.704;9.474;2023-06-22T16:54:10;7.32;;;3.00;;
11996;SDS011;6058;48.704;9.474;2023-06-22T16:56:38;12.43;;;3.08;;
11996;SDS011;6058;48.704;9.474;2023-06-22T16:59:05;6.90;;;2.95;;
11996;SDS011;6058;48.704;9.474;2023-06-22T17:01:33;11.10;;;2.97;;
11996;SDS011;6058;48.704;9.474;2023-06-22T17:04:04;7.22;;;3.22;;
11996;SDS011;6058;48.704;9.474;2023-06-22T17:06:32;9.55;;;3.35;;
11996;SDS011;6058;48.704;9.474;2023-06-22T17:08:59;7.40;;;2.88;;
11996;SDS011;6058;48.704;9.474;2023-06-22T17:11:28;10.88;;;2.75;;
11996;SDS011;6058;48.704;9.474;2023-06-22T17:13:55;5.63;;;3.05;;
11996;SDS011;6058;48.704;9.474;2023-06-22T17:16:22;9.13;;;3.00;;
11996;SDS011;6058;48.704;9.474;2023-06-22T17:18:52;7.93;;;2.85;;
11996;SDS011;6058;48.704;9.474;2023-06-22T17:21:22;6.63;;;3.53;;
11996;SDS011;6058;48.704;9.474;2023-06-22T17:23:49;9.15;;;3.10;;
11996;SDS011;6058;48.704;9.474;2023-06-22T17:26:17;7.35;;;2.80;;
11996;SDS011;6058;48.704;9.474;2023-06-22T17:28:48;8.63;;;2.78;;
11996;SDS011;6058;48.704;9.474;2023-06-22T17:31:15;9.10;;;2.85;;
11996;SDS011;6058;48.704;9.474;2023-06-22T17:33:42;7.28;;;3.15;;
11996;SDS011;6058;48.704;9.474;2023-06-22T17:36:11;10.00;;;3.05;;
11996;SDS011;6058;48.704;9.474;2023-06-22T17:38:39;9.20;;;2.92;;
11996;SDS011;6058;48.704;9.474;2023-06-22T17:41:07;5.78;;;2.90;;
11996;SDS011;6058;48.704;9.474;2023-06-22T17:43:42;5.85;;;2.63;;
11996;SDS011;6058;48.704;9.474;2023-06-22T17:46:10;9.52;;;3.08;;
11996;SDS011;6058;48.704;9.474;2023-06-22T17:48:37;7.95;;;2.90;;
11996;SDS011;6058;48.704;9.474;2023-06-22T17:51:04;7.43;;;2.95;;
11996;SDS011;6058;48.704;9.474;2023-06-22T17:53:34;8.30;;;3.13;;
11996;SDS011;6058;48.704;9.474;2023-06-22T17:56:03;6.57;;;2.42;;
11996;SDS011;6058;48.704;9.474;2023-06-22T17:58:30;5.90;;;2.60;;
11996;SDS011;6058;48.704;9.474;2023-06-22T18:00:57;8.32;;;2.67;;
11996;SDS011;6058;48.704;9.474;2023-06-22T18:03:24;9.13;;;2.60;;
11996;SDS011;6058;48.704;9.474;2023-06-22T18:05:51;5.35;;;2.78;;
11996;SDS011;6058;48.704;9.474;2023-06-22T18:08:23;7.57;;;2.90;;
11996;SDS011;6058;48.704;9.474;2023-06-22T18:10:53;7.25;;;2.60;;
11996;SDS011;6058;48.704;9.474;2023-06-22T18:13:20;5.93;;;2.40;;
11996;SDS011;6058;48.704;9.474;2023-06-22T18:15:47;4.45;;;2.38;;
11996;SDS011;6058;48.704;9.474;2023-06-22T18:18:15;6.63;;;2.83;;
11996;SDS011;6058;48.704;9.474;2023-06-22T18:20:43;3.72;;;2.33;;
11996;SDS011;6058;48.704;9.474;2023-06-22T18:23:11;6.40;;;2.45;;
11996;SDS011;6058;48.704;9.474;2023-06-22T18:25:38;6.32;;;2.40;;
11996;SDS011;6058;48.704;9.474;2023-06-22T18:28:11;9.82;;;2.75;;
11996;SDS011;6058;48.704;9.474;2023-06-22T18:30:39;11.93;;;2.75;;
11996;SDS011;6058;48.704;9.474;2023-06-22T18:33:06;3.75;;;2.10;;
11996;SDS011;6058;48.704;9.474;2023-06-22T18:35:33;7.43;;;2.70;;
11996;SDS011;6058;48.704;9.474;2023-06-22T18:38:00;7.05;;;2.72;;
11996;SDS011;6058;48.704;9.474;2023-06-22T18:40:28;6.38;;;2.40;;
11996;SDS011;6058;48.704;9.474;2023-06-22T18:42:58;5.60;;;2.33;;
11996;SDS011;6058;48.704;9.474;2023-06-22T18:45:28;7.72;;;2.22;;
11996;SDS011;6058;48.704;9.474;2023-06-22T18:48:01;4.72;;;2.40;;
11996;SDS011;6058;48.704;9.474;2023-06-22T18:50:35;3.78;;;2.05;;
11996;SDS011;6058;48.704;9.474;2023-06-22T18:53:02;8.27;;;2.97;;
11996;SDS011;6058;48.704;9.474;2023-06-22T18:55:30;10.45;;;2.35;;
11996;SDS011;6058;48.704;9.474;2023-06-22T18:58:11;4.50;;;1.92;;
11996;SDS011;6058;48.704;9.474;2023-06-22T19:00:40;3.30;;;1.83;;
11996;SDS011;6058;48.704;9.474;2023-06-22T19:03:07;4.88;;;1.98;;
11996;SDS011;6058;48.704;9.474;2023-06-22T19:05:37;5.97;;;2.50;;
11996;SDS011;6058;48.704;9.474;2023-06-22T19:08:05;8.13;;;2.45;;
11996;SDS011;6058;48.704;9.474;2023-06-22T19:10:38;12.52;;;2.55;;
11996;SDS011;6058;48.704;9.474;2023-06-22T19:13:17;7.35;;;2.55;;
11996;SDS011;6058;48.704;9.474;2023-06-22T19:15:46;4.00;;;2.17;;
11996;SDS011;6058;48.704;9.474;2023-06-22T19:18:14;5.47;;;2.13;;
11996;SDS011;6058;48.704;9.474;2023-06-22T19:20:41;3.92;;;2.42;;
11996;SDS011;6058;48.704;9.474;2023-06-22T19:23:22;3.42;;;2.05;;
11996;SDS011;6058;48.704;9.474;2023-06-22T19:25:49;4.45;;;2.20;;
11996;SDS011;6058;48.704;9.474;2023-06-22T19:28:22;5.13;;;1.92;;
11996;SDS011;6058;48.704;9.474;2023-06-22T19:30:52;3.58;;;2.42;;
11996;SDS011;6058;48.704;9.474;2023-06-22T19:33:20;3.40;;;1.95;;
11996;SDS011;6058;48.704;9.474;2023-06-22T19:35:47;3.70;;;1.98;;
11996;SDS011;6058;48.704;9.474;2023-06-22T19:38:15;6.90;;;2.30;;
11996;SDS011;6058;48.704;9.474;2023-06-22T19:40:43;3.78;;;2.25;;
11996;SDS011;6058;48.704;9.474;2023-06-22T19:43:10;4.72;;;2.03;;
11996;SDS011;6058;48.704;9.474;2023-06-22T19:45:39;4.50;;;2.00;;
11996;SDS011;6058;48.704;9.474;2023-06-22T19:48:08;6.50;;;2.22;;
11996;SDS011;6058;48.704;9.474;2023-06-22T19:50:36;2.92;;;1.95;;
11996;SDS011;6058;48.704;9.474;2023-06-22T19:53:06;6.10;;;2.17;;
11996;SDS011;6058;48.704;9.474;2023-06-22T19:55:35;4.80;;;2.15;;
11996;SDS011;6058;48.704;9.474;2023-06-22T19:58:03;7.03;;;2.40;;
11996;SDS011;6058;48.704;9.474;2023-06-22T20:00:31;5.22;;;2.13;;
11996;SDS011;6058;48.704;9.474;2023-06-22T20:02:59;6.07;;;2.28;;
11996;SDS011;6058;48.704;9.474;2023-06-22T20:05:28;3.95;;;2.15;;
11996;SDS011;6058;48.704;9.474;2023-06-22T20:07:55;4.68;;;2.42;;
11996;SDS011;6058;48.704;9.474;2023-06-22T20:10:22;4.82;;;2.42;;
11996;SDS011;6058;48.704;9.474;2023-06-22T20:12:50;6.68;;;2.58;;
11996;SDS011;6058;48.704;9.474;2023-06-22T20:15:18;5.97;;;2.47;;
11996;SDS011;6058;48.704;9.474;2023-06-22T20:17:52;3.72;;;1.92;;
11996;SDS011;6058;48.704;9.474;2023-06-22T20:20:19;3.47;;;2.08;;
11996;SDS011;6058;48.704;9.474;2023-06-22T20:22:48;8.88;;;2.50;;
11996;SDS011;6058;48.704;9.474;2023-06-22T20:25:19;5.72;;;2.00;;
11996;SDS011;6058;48.704;9.474;2023-06-22T20:27:46;3.33;;;2.40;;
11996;SDS011;6058;48.704;9.474;2023-06-22T20:30:14;4.45;;;2.30;;
11996;SDS011;6058;48.704;9.474;2023-06-22T20:32:48;5.28;;;2.35;;
11996;SDS011;6058;48.704;9.474;2023-06-22T20:35:15;5.13;;;2.15;;
11996;SDS011;6058;48.704;9.474;2023-06-22T20:37:42;6.00;;;1.95;;
11996;SDS011;6058;48.704;9.474;2023-06-22T20:40:11;5.15;;;2.05;;
11996;SDS011;6058;48.704;9.474;2023-06-22T20:42:39;6.15;;;2.53;;
11996;SDS011;6058;48.704;9.474;2023-06-22T20:45:06;4.78;;;2.40;;
11996;SDS011;6058;48.704;9.474;2023-06-22T20:47:34;3.10;;;1.83;;
11996;SDS011;6058;48.704;9.474;2023-06-22T20:50:02;2.83;;;2.28;;
11996;SDS011;6058;48.704;9.474;2023-06-22T20:52:30;2.58;;;1.80;;
11996;SDS011;6058;48.704;9.474;2023-06-22T20:54:57;3.72;;;2.20;;
11996;SDS011;6058;48.704;9.474;2023-06-22T20:57:25;6.55;;;2.38;;
11996;SDS011;6058;48.704;9.474;2023-06-22T20:59:52;3.38;;;2.58;;
11996;SDS011;6058;48.704;9.474;2023-06-22T21:02:19;5.57;;;2.47;;
11996;SDS011;6058;48.704;9.474;2023-06-22T21:04:48;6.05;;;2.47;;
11996;SDS011;6058;48.704;9.474;2023-06-22T21:07:15;4.05;;;2.38;;
11996;SDS011;6058;48.704;9.474;2023-06-22T21:09:43;4.68;;;2.28;;
11996;SDS011;6058;48.704;9.474;2023-06-22T21:12:11;4.95;;;2.28;;
11996;SDS011;6058;48.704;9.474;2023-06-22T21:14:39;7.63;;;2.50;;
11996;SDS011;6058;48.704;9.474;2023-06-22T21:17:06;3.55;;;2.25;;
11996;SDS011;6058;48.704;9.474;2023-06-22T21:19:33;6.45;;;2.97;;
11996;SDS011;6058;48.704;9.474;2023-06-22T21:22:01;3.75;;;2.28;;
11996;SDS011;6058;48.704;9.474;2023-06-22T21:24:28;7.28;;;2.20;;
11996;SDS011;6058;48.704;9.474;2023-06-22T21:26:55;3.58;;;2.20;;
11996;SDS011;6058;48.704;9.474;2023-06-22T21:29:22;3.03;;;2.08;;
11996;SDS011;6058;48.704;9.474;2023-06-22T21:31:51;3.75;;;2.35;;
11996;SDS011;6058;48.704;9.474;2023-06-22T21:34:18;4.65;;;2.63;;
11996;SDS011;6058;48.704;9.474;2023-06-22T21:36:45;4.10;;;2.20;;
11996;SDS011;6058;48.704;9.474;2023-06-22T21:39:12;3.72;;;2.03;;
11996;SDS011;6058;48.704;9.474;2023-06-22T21:41:39;2.22;;;1.90;;
11996;SDS011;6058;48.704;9.474;2023-06-22T21:44:09;2.63;;;2.22;;
11996;SDS011;6058;48.704;9.474;2023-06-22T21:46:36;4.57;;;2.08;;
11996;SDS011;6058;48.704;9.474;2023-06-22T21:49:04;3.90;;;1.55;;
11996;SDS011;6058;48.704;9.474;2023-06-22T21:51:31;4.00;;;2.20;;
11996;SDS011;6058;48.704;9.474;2023-06-22T21:53:59;2.15;;;1.80;;
11996;SDS011;6058;48.704;9.474;2023-06-22T21:56:26;3.55;;;2.30;;
11996;SDS011;6058;48.704;9.474;2023-06-22T21:58:53;5.75;;;2.20;;
11996;SDS011;6058;48.704;9.474;2023-06-22T22:01:20;2.03;;;1.83;;
11996;SDS011;6058;48.704;9.474;2023-06-22T22:03:47;4.03;;;1.58;;
11996;SDS011;6058;48.704;9.474;2023-06-22T22:06:17;4.35;;;2.03;;
11996;SDS011;6058;48.704;9.474;2023-06-22T22:08:48;5.43;;;1.73;;
11996;SDS011;6058;48.704;9.474;2023-06-22T22:11:15;5.07;;;2.55;;
11996;SDS011;6058;48.704;9.474;2023-06-22T22:13:42;3.20;;;1.88;;
11996;SDS011;6058;48.704;9.474;2023-06-22T22:16:09;2.72;;;1.90;;
11996;SDS011;6058;48.704;9.474;2023-06-22T22:18:36;4.78;;;2.15;;
11996;SDS011;6058;48.704;9.474;2023-06-22T22:21:04;2.08;;;1.90;;
11996;SDS011;6058;48.704;9.474;2023-06-22T22:23:32;5.10;;;1.70;;